Terminal Aerodrome Forecast
Issued by NWS

Home | Current Version | Previous Version | Graphics & Text | Print | Product List | Glossary On
Versions: 1 2 3 4 5 6 7 8 9 10 11 12 13 14 15 16 17 18 19 20 21 22 23 24 25 26 27 28 29 30 31 32 33 34 35 36
000
FTUS43 KLOT 150300 AAA
TAFGYY
TAF AMD
KGYY 150318Z 1503/1524 35015G25KT 1 1/2SM -SN OVC015
     FM150500 35012G18KT P6SM OVC030
     FM150700 35012KT P6SM SCT060
     FM151900 04012KT P6SM SKC=

USA.gov is the U.S. government's official web portal to all federal, state and local government web resources and services.